createdAt,value
2024-02-18T00:00:26.799Z,31.11
2024-02-18T00:01:27.008Z,31.10
2024-02-18T00:02:26.825Z,31.11
2024-02-18T00:03:26.945Z,31.09
2024-02-18T00:04:26.996Z,31.12
2024-02-18T00:05:26.993Z,31.10
2024-02-18T00:06:27.183Z,31.10
2024-02-18T00:07:27.252Z,31.09
2024-02-18T00:08:27.184Z,31.11
2024-02-18T00:09:27.295Z,31.11
2024-02-18T00:10:27.397Z,31.10
2024-02-18T00:11:27.502Z,31.10
2024-02-18T00:12:27.522Z,31.10
2024-02-18T00:13:27.563Z,31.07
2024-02-18T00:14:27.625Z,31.09
2024-02-18T00:15:27.748Z,31.11
2024-02-18T00:16:27.795Z,31.09
2024-02-18T00:17:27.860Z,31.09
2024-02-18T00:18:28.448Z,31.11
2024-02-18T00:19:28.086Z,31.07
2024-02-18T00:20:28.094Z,31.12
2024-02-18T00:21:28.159Z,31.11
2024-02-18T00:22:28.204Z,31.11
2024-02-18T00:23:28.322Z,31.09
2024-02-18T00:24:28.397Z,31.10
2024-02-18T00:25:28.438Z,31.09
2024-02-18T00:26:38.447Z,31.09
2024-02-18T00:27:29.529Z,31.09
2024-02-18T00:28:28.495Z,31.09
2024-02-18T00:29:28.513Z,31.09
2024-02-18T00:30:28.559Z,31.11
2024-02-18T00:31:28.505Z,31.05
2024-02-18T00:32:28.552Z,31.10
2024-02-18T00:33:28.753Z,31.07
2024-02-18T00:34:28.531Z,31.09
2024-02-18T00:35:28.536Z,31.08
2024-02-18T00:36:28.621Z,31.07
2024-02-18T00:37:28.712Z,31.10
2024-02-18T00:38:28.777Z,31.07
2024-02-18T00:39:28.851Z,31.10
2024-02-18T00:40:28.939Z,31.11
2024-02-18T00:41:28.982Z,31.11
2024-02-18T00:42:29.105Z,31.11
2024-02-18T00:43:29.064Z,31.11
2024-02-18T00:44:29.172Z,31.11
2024-02-18T00:45:29.223Z,31.09
2024-02-18T00:46:40.294Z,31.11
2024-02-18T00:47:30.316Z,31.09
2024-02-18T00:48:29.379Z,31.11
2024-02-18T00:49:29.339Z,31.11
2024-02-18T00:50:29.273Z,31.11
2024-02-18T00:51:29.341Z,31.09
2024-02-18T00:52:29.312Z,31.09
2024-02-18T00:53:29.305Z,31.08
2024-02-18T00:54:29.358Z,31.11
2024-02-18T00:55:29.387Z,31.12
2024-02-18T00:56:29.500Z,31.10
2024-02-18T00:57:29.559Z,31.13
2024-02-18T00:58:29.626Z,31.08
2024-02-18T00:59:29.665Z,31.12
2024-02-18T01:00:29.795Z,31.10
2024-02-18T01:01:29.903Z,31.11
2024-02-18T01:02:29.903Z,31.11
2024-02-18T01:03:30.007Z,31.10
2024-02-18T01:04:30.035Z,31.10
2024-02-18T01:05:30.075Z,31.13
2024-02-18T01:06:30.205Z,31.11
2024-02-18T01:07:30.280Z,31.09
2024-02-18T01:08:30.284Z,31.12
2024-02-18T01:09:30.410Z,31.10
2024-02-18T01:10:30.399Z,31.11
2024-02-18T01:11:30.508Z,31.11
2024-02-18T01:12:30.555Z,31.12
2024-02-18T01:13:30.583Z,31.11
2024-02-18T01:14:30.690Z,31.11
2024-02-18T01:15:30.773Z,31.10
2024-02-18T01:16:30.767Z,31.11
2024-02-18T01:17:30.915Z,31.11
2024-02-18T01:18:30.985Z,31.10
2024-02-18T01:19:31.077Z,31.12
2024-02-18T01:20:31.048Z,31.12
2024-02-18T01:21:31.162Z,31.11
2024-02-18T01:22:31.148Z,31.13
2024-02-18T01:23:31.260Z,31.11
2024-02-18T01:24:31.340Z,31.14
2024-02-18T01:25:31.381Z,31.13
2024-02-18T01:26:31.432Z,31.10
2024-02-18T01:27:31.525Z,31.08
2024-02-18T01:28:31.628Z,31.13
2024-02-18T01:29:31.691Z,31.11
2024-02-18T01:30:31.689Z,31.10
2024-02-18T01:31:31.796Z,31.12
2024-02-18T01:32:31.865Z,31.10
2024-02-18T01:33:31.932Z,31.11
2024-02-18T01:34:32.063Z,31.11
2024-02-18T01:35:32.059Z,31.10
2024-02-18T01:36:32.153Z,31.12
2024-02-18T01:37:32.189Z,31.11
2024-02-18T01:38:32.228Z,31.13
2024-02-18T01:39:32.304Z,31.09
2024-02-18T01:40:32.356Z,31.11
2024-02-18T01:41:32.422Z,31.11
2024-02-18T01:42:32.532Z,31.11
2024-02-18T01:43:32.567Z,31.13
2024-02-18T01:44:32.648Z,31.11
2024-02-18T01:45:32.749Z,31.11
2024-02-18T01:46:32.756Z,31.11
2024-02-18T01:47:32.906Z,31.11
2024-02-18T01:48:33.114Z,31.13
2024-02-18T01:49:33.045Z,31.14
2024-02-18T01:50:33.151Z,31.12
2024-02-18T01:51:33.160Z,31.14
2024-02-18T01:52:33.187Z,31.10
2024-02-18T01:53:33.250Z,31.13
2024-02-18T01:54:33.418Z,31.11
2024-02-18T01:55:33.534Z,31.13
2024-02-18T01:56:33.485Z,31.13
2024-02-18T01:57:33.577Z,31.14
2024-02-18T01:58:33.596Z,31.14
2024-02-18T01:59:33.732Z,31.12
2024-02-18T02:00:33.818Z,31.15
2024-02-18T02:01:33.989Z,31.11
2024-02-18T02:02:33.839Z,31.11
2024-02-18T02:03:33.984Z,31.14
2024-02-18T02:04:34.274Z,31.14
2024-02-18T02:05:34.198Z,31.13
2024-02-18T02:06:34.184Z,31.12
2024-02-18T02:07:34.232Z,31.13
2024-02-18T02:08:34.289Z,31.13
2024-02-18T02:09:34.368Z,31.12
2024-02-18T02:10:34.411Z,31.11
2024-02-18T02:11:34.555Z,31.11
2024-02-18T02:12:34.592Z,31.15
2024-02-18T02:13:34.629Z,31.12
2024-02-18T02:14:34.670Z,31.14
2024-02-18T02:15:34.858Z,31.13
2024-02-18T02:16:34.820Z,31.13
2024-02-18T02:17:34.864Z,31.12
2024-02-18T02:18:35.077Z,31.14
2024-02-18T02:19:35.016Z,31.10
2024-02-18T02:20:35.078Z,31.13
2024-02-18T02:21:35.179Z,31.14
2024-02-18T02:22:35.208Z,31.11
2024-02-18T02:23:35.273Z,31.14
2024-02-18T02:24:35.346Z,31.12
2024-02-18T02:25:35.394Z,31.16
2024-02-18T02:26:35.476Z,31.13
2024-02-18T02:27:35.596Z,31.13
2024-02-18T02:28:35.587Z,31.15
2024-02-18T02:29:35.640Z,31.15
2024-02-18T02:30:35.821Z,31.14
2024-02-18T02:31:35.821Z,31.12
2024-02-18T02:32:35.932Z,31.14
2024-02-18T02:33:35.972Z,31.16
2024-02-18T02:34:36.069Z,31.16
2024-02-18T02:35:36.103Z,31.13
2024-02-18T02:36:36.108Z,31.13
2024-02-18T02:37:36.171Z,31.15
2024-02-18T02:38:36.218Z,31.12
2024-02-18T02:39:36.311Z,31.14
2024-02-18T02:40:36.369Z,31.17
2024-02-18T02:41:36.389Z,31.15
2024-02-18T02:42:36.520Z,31.15
2024-02-18T02:43:36.480Z,31.12
2024-02-18T02:44:36.513Z,31.14
2024-02-18T02:45:36.540Z,31.14
2024-02-18T02:46:36.606Z,31.14
2024-02-18T02:47:36.694Z,31.17
2024-02-18T02:48:36.744Z,31.13
2024-02-18T02:49:36.845Z,31.15
2024-02-18T02:50:38.982Z,31.14
2024-02-18T02:51:36.810Z,31.13
2024-02-18T02:52:36.778Z,31.15
2024-02-18T02:53:36.779Z,31.15
2024-02-18T02:54:36.822Z,31.17
2024-02-18T02:55:36.807Z,31.15
2024-02-18T02:56:36.779Z,31.16
2024-02-18T02:57:36.762Z,31.16
2024-02-18T02:58:36.766Z,31.16
2024-02-18T02:59:36.776Z,31.14
2024-02-18T03:00:36.813Z,31.15
2024-02-18T03:01:36.868Z,31.14
2024-02-18T03:02:36.802Z,31.13
2024-02-18T03:03:36.912Z,31.13
2024-02-18T03:04:36.947Z,31.14
2024-02-18T03:05:36.805Z,31.15
2024-02-18T03:06:36.874Z,31.13
2024-02-18T03:07:36.773Z,31.14
2024-02-18T03:08:36.779Z,31.15
2024-02-18T03:09:36.788Z,31.15
2024-02-18T03:10:36.795Z,31.15
2024-02-18T03:11:36.808Z,31.17
2024-02-18T03:12:36.882Z,31.12
2024-02-18T03:13:36.832Z,31.14
2024-02-18T03:14:36.794Z,31.14
2024-02-18T03:15:36.829Z,31.14
2024-02-18T03:16:36.804Z,31.14
2024-02-18T03:17:36.821Z,31.12
2024-02-18T03:18:36.937Z,31.14
2024-02-18T03:19:36.862Z,31.18
2024-02-18T03:20:36.824Z,31.16
2024-02-18T03:21:36.850Z,31.17
2024-02-18T03:22:36.830Z,31.16
2024-02-18T03:23:36.778Z,31.16
2024-02-18T03:24:36.859Z,31.14
2024-02-18T03:25:36.824Z,31.15
2024-02-18T03:26:36.814Z,31.15
2024-02-18T03:27:36.935Z,31.15
2024-02-18T03:28:36.838Z,31.14
2024-02-18T03:29:39.038Z,31.13
2024-02-18T03:30:36.895Z,31.15
2024-02-18T03:31:36.891Z,31.14
2024-02-18T03:32:37.072Z,31.15
2024-02-18T03:33:37.088Z,31.15
2024-02-18T03:34:37.179Z,31.14
2024-02-18T03:35:37.025Z,31.11
2024-02-18T03:36:37.095Z,31.13
2024-02-18T03:37:37.093Z,31.14
2024-02-18T03:38:37.170Z,31.13
2024-02-18T03:39:37.177Z,31.12
2024-02-18T03:40:37.212Z,31.13
2024-02-18T03:41:37.274Z,31.13
2024-02-18T03:42:37.320Z,31.16
2024-02-18T03:43:37.312Z,31.14
2024-02-18T03:44:37.332Z,31.14
2024-02-18T03:45:37.446Z,31.15
2024-02-18T03:46:37.416Z,31.14
2024-02-18T03:47:37.476Z,31.17
2024-02-18T03:48:37.521Z,31.17
2024-02-18T03:49:37.562Z,31.16
2024-02-18T03:50:37.462Z,31.17
2024-02-18T03:51:37.567Z,31.17
2024-02-18T03:52:37.498Z,31.18
2024-02-18T03:53:37.556Z,31.16
2024-02-18T03:54:37.644Z,31.21
2024-02-18T03:55:37.599Z,31.18
2024-02-18T03:56:37.584Z,31.16
2024-02-18T03:57:37.673Z,31.17
2024-02-18T03:58:37.632Z,31.18
2024-02-18T03:59:37.611Z,31.14
2024-02-18T04:00:37.725Z,31.17
2024-02-18T04:01:37.844Z,31.17
2024-02-18T04:02:37.707Z,31.19
2024-02-18T04:03:37.758Z,31.18
2024-02-18T04:04:37.703Z,31.17
2024-02-18T04:05:37.690Z,31.17
2024-02-18T04:06:37.675Z,31.16
2024-02-18T04:07:37.651Z,31.23
2024-02-18T04:08:37.716Z,31.18
2024-02-18T04:09:37.879Z,31.16
2024-02-18T04:10:37.798Z,31.18
2024-02-18T04:11:37.878Z,31.18
2024-02-18T04:12:37.898Z,31.17
2024-02-18T04:13:37.822Z,31.20
2024-02-18T04:14:37.928Z,31.18
2024-02-18T04:15:37.965Z,31.21
2024-02-18T04:16:37.919Z,31.18
2024-02-18T04:17:37.951Z,31.17
2024-02-18T04:18:38.058Z,31.17
2024-02-18T04:19:38.174Z,31.19
2024-02-18T04:20:37.948Z,31.19
2024-02-18T04:21:37.946Z,31.17
2024-02-18T04:22:37.929Z,31.20
2024-02-18T04:23:37.971Z,31.20
2024-02-18T04:24:37.946Z,31.20
2024-02-18T04:25:37.991Z,31.19
2024-02-18T04:26:38.011Z,31.27
2024-02-18T04:27:38.014Z,31.20
2024-02-18T04:28:38.012Z,31.18
2024-02-18T04:29:38.042Z,31.16
2024-02-18T04:30:38.089Z,31.20
2024-02-18T04:31:38.054Z,31.19
2024-02-18T04:32:38.139Z,31.14
2024-02-18T04:33:45.578Z,31.24
2024-02-18T04:34:45.501Z,31.21
2024-02-18T04:35:45.379Z,31.21
2024-02-18T04:36:45.488Z,31.19
2024-02-18T04:37:45.428Z,31.21
2024-02-18T04:38:45.386Z,31.21
2024-02-18T04:39:45.468Z,31.19
2024-02-18T04:40:45.405Z,31.19
2024-02-18T04:41:45.388Z,31.18
2024-02-18T04:42:45.474Z,31.18
2024-02-18T04:43:45.422Z,31.16
2024-02-18T04:44:45.429Z,31.16
2024-02-18T04:45:45.450Z,31.16
2024-02-18T04:46:45.417Z,31.18
2024-02-18T04:47:45.490Z,31.18
2024-02-18T04:48:45.494Z,31.20
2024-02-18T04:49:45.652Z,31.18
2024-02-18T04:50:45.558Z,31.18
2024-02-18T04:51:45.463Z,31.20
2024-02-18T04:52:45.431Z,31.20
2024-02-18T04:53:45.446Z,31.19
2024-02-18T04:54:46.084Z,31.21
2024-02-18T04:55:45.433Z,31.18
2024-02-18T04:56:45.481Z,31.17
2024-02-18T04:57:45.547Z,31.18
2024-02-18T04:58:45.450Z,31.16
2024-02-18T04:59:45.423Z,31.19
2024-02-18T05:00:45.530Z,31.18
2024-02-18T05:01:45.448Z,31.19
2024-02-18T05:02:45.480Z,31.18
2024-02-18T05:03:45.500Z,31.17
2024-02-18T05:04:45.451Z,31.17
2024-02-18T05:05:45.482Z,31.18
2024-02-18T05:06:45.462Z,31.19
2024-02-18T05:07:46.483Z,31.20
2024-02-18T05:08:45.421Z,31.23
2024-02-18T05:09:45.464Z,31.17
2024-02-18T05:10:45.452Z,31.21
2024-02-18T05:11:45.455Z,31.19
2024-02-18T05:12:45.520Z,31.24
2024-02-18T05:13:45.413Z,31.21
2024-02-18T05:14:45.468Z,31.21
2024-02-18T05:15:45.524Z,31.20
2024-02-18T05:16:45.440Z,31.18
2024-02-18T05:17:45.472Z,31.21
2024-02-18T05:18:45.562Z,31.19
2024-02-18T05:19:45.516Z,31.20
2024-02-18T05:20:45.497Z,31.19
2024-02-18T05:21:45.625Z,31.20
2024-02-18T05:22:45.499Z,31.21
2024-02-18T05:23:45.460Z,31.18
2024-02-18T05:24:45.460Z,31.21
2024-02-18T05:25:45.533Z,31.22
2024-02-18T05:26:45.427Z,31.21
2024-02-18T05:27:45.477Z,31.21
2024-02-18T05:28:45.444Z,31.21
2024-02-18T05:29:45.478Z,31.21
2024-02-18T05:30:45.460Z,31.21
2024-02-18T05:31:45.506Z,31.22
2024-02-18T05:32:45.602Z,31.21
2024-02-18T05:33:45.628Z,31.19
2024-02-18T05:34:45.604Z,31.20
2024-02-18T05:35:45.635Z,31.21
2024-02-18T05:36:45.530Z,31.22
2024-02-18T05:37:45.537Z,31.23
2024-02-18T05:38:45.636Z,31.22
2024-02-18T05:39:45.560Z,31.22
2024-02-18T05:40:45.571Z,31.20
2024-02-18T05:41:45.502Z,31.20
2024-02-18T05:42:45.669Z,31.22
2024-02-18T05:43:45.594Z,31.24
2024-02-18T05:44:45.594Z,31.23
2024-02-18T05:45:46.068Z,31.22
2024-02-18T05:46:45.559Z,31.22
2024-02-18T05:47:45.615Z,31.22
2024-02-18T05:48:45.834Z,31.24
2024-02-18T05:49:45.778Z,31.21
2024-02-18T05:50:45.664Z,31.23
2024-02-18T05:51:45.774Z,31.22
2024-02-18T05:52:45.637Z,31.20
2024-02-18T05:53:45.686Z,31.22
2024-02-18T05:54:45.686Z,31.23
2024-02-18T05:55:45.675Z,31.19
2024-02-18T05:56:45.736Z,31.24
2024-02-18T05:57:45.816Z,31.21
2024-02-18T05:58:45.780Z,31.20
2024-02-18T05:59:45.763Z,31.20
2024-02-18T06:00:45.851Z,31.23
2024-02-18T06:01:45.833Z,31.20
2024-02-18T06:02:45.823Z,31.19
2024-02-18T06:03:45.961Z,31.18
2024-02-18T06:04:45.796Z,31.19
2024-02-18T06:05:45.877Z,31.24
2024-02-18T06:06:45.907Z,31.21
2024-02-18T06:07:45.893Z,31.21
2024-02-18T06:08:45.846Z,31.23
2024-02-18T06:09:45.923Z,31.20
2024-02-18T06:10:46.148Z,31.25
2024-02-18T06:11:45.937Z,31.22
2024-02-18T06:12:46.023Z,31.22
2024-02-18T06:13:46.029Z,31.21
2024-02-18T06:14:46.095Z,31.22
2024-02-18T06:15:46.077Z,31.23
2024-02-18T06:16:46.045Z,31.23
2024-02-18T06:17:46.120Z,31.22
2024-02-18T06:18:46.223Z,31.21
2024-02-18T06:19:46.113Z,31.22
2024-02-18T06:20:46.079Z,31.25
2024-02-18T06:21:46.104Z,31.22
2024-02-18T06:22:46.085Z,31.23
2024-02-18T06:23:46.085Z,31.22
2024-02-18T06:24:46.110Z,31.23
2024-02-18T06:25:46.108Z,31.22
2024-02-18T06:26:46.178Z,31.22
2024-02-18T06:27:46.128Z,31.23
2024-02-18T06:28:46.125Z,31.26
2024-02-18T06:29:46.125Z,31.23
2024-02-18T06:30:46.202Z,31.22
2024-02-18T06:31:46.168Z,31.25
2024-02-18T06:32:46.133Z,31.24
2024-02-18T06:33:46.333Z,31.25
2024-02-18T06:34:46.256Z,31.25
2024-02-18T06:35:46.196Z,31.22
2024-02-18T06:36:46.168Z,31.25
2024-02-18T06:37:46.168Z,31.23
2024-02-18T06:38:46.273Z,31.24
2024-02-18T06:39:46.211Z,31.24
2024-02-18T06:40:46.218Z,31.23
2024-02-18T06:41:46.517Z,31.22
2024-02-18T06:42:46.323Z,31.25
2024-02-18T06:43:46.188Z,31.26
2024-02-18T06:44:46.197Z,31.23
2024-02-18T06:45:46.293Z,31.21
2024-02-18T06:46:46.253Z,31.24
2024-02-18T06:47:46.230Z,31.23
2024-02-18T06:48:46.354Z,31.22
2024-02-18T06:49:46.383Z,31.22
2024-02-18T06:50:46.247Z,31.24
2024-02-18T06:51:46.269Z,31.26
2024-02-18T06:52:46.309Z,31.23
2024-02-18T06:53:46.309Z,31.25
2024-02-18T06:54:46.352Z,31.25
2024-02-18T06:55:46.269Z,31.26
2024-02-18T06:56:46.308Z,31.25
2024-02-18T06:57:46.363Z,31.23
2024-02-18T06:58:46.396Z,31.26
2024-02-18T06:59:46.330Z,31.24
2024-02-18T07:00:46.389Z,31.23
2024-02-18T07:01:46.394Z,31.25
2024-02-18T07:02:46.363Z,31.25
2024-02-18T07:03:46.367Z,31.25
2024-02-18T07:04:46.362Z,31.25
2024-02-18T07:05:46.420Z,31.25
2024-02-18T07:06:46.464Z,31.23
2024-02-18T07:07:46.393Z,31.31
2024-02-18T07:08:46.401Z,31.22
2024-02-18T07:09:46.470Z,31.25
2024-02-18T07:10:46.493Z,31.25
2024-02-18T07:11:46.383Z,31.24
2024-02-18T07:12:46.437Z,31.22
2024-02-18T07:13:46.424Z,31.24
2024-02-18T07:14:46.460Z,31.24
2024-02-18T07:15:46.504Z,31.26
2024-02-18T07:16:46.412Z,31.23
2024-02-18T07:17:46.449Z,31.25
2024-02-18T07:18:46.598Z,31.23
2024-02-18T07:19:46.605Z,31.22
2024-02-18T07:20:46.537Z,31.21
2024-02-18T07:21:46.495Z,31.26
2024-02-18T07:22:46.488Z,31.23
2024-02-18T07:23:46.477Z,31.24
2024-02-18T07:24:46.561Z,31.24
2024-02-18T07:25:46.525Z,31.23
2024-02-18T07:26:46.527Z,31.22
2024-02-18T07:27:46.590Z,31.22
2024-02-18T07:28:46.636Z,31.24
2024-02-18T07:29:46.603Z,31.22
2024-02-18T07:30:46.699Z,31.22
2024-02-18T07:31:46.595Z,31.22
2024-02-18T07:32:46.707Z,31.21
2024-02-18T07:33:46.800Z,31.20
2024-02-18T07:34:46.648Z,31.23
2024-02-18T07:35:46.603Z,31.26
2024-02-18T07:36:46.657Z,31.27
2024-02-18T07:37:46.628Z,31.22
2024-02-18T07:38:46.716Z,31.21
2024-02-18T07:39:46.696Z,31.23
2024-02-18T07:40:46.633Z,31.22
2024-02-18T07:41:46.637Z,31.29
2024-02-18T07:42:46.686Z,31.24
2024-02-18T07:43:46.701Z,31.21
2024-02-18T07:44:46.688Z,31.20
2024-02-18T07:45:46.678Z,31.24
2024-02-18T07:46:46.763Z,31.21
2024-02-18T07:47:46.811Z,31.17
2024-02-18T07:48:46.844Z,31.18
2024-02-18T07:49:46.807Z,31.19
2024-02-18T07:50:46.682Z,31.19
2024-02-18T07:51:46.747Z,31.19
2024-02-18T07:52:46.704Z,31.20
2024-02-18T07:53:46.721Z,31.17
2024-02-18T07:54:46.831Z,31.21
2024-02-18T07:55:46.787Z,31.20
2024-02-18T07:56:46.802Z,31.19
2024-02-18T07:57:46.817Z,31.15
2024-02-18T07:58:46.779Z,31.15
2024-02-18T07:59:46.773Z,31.12
2024-02-18T08:00:46.861Z,31.10
2024-02-18T08:01:47.042Z,31.10
2024-02-18T08:02:46.857Z,31.10
2024-02-18T08:03:46.845Z,31.08
2024-02-18T08:04:46.997Z,31.07
2024-02-18T08:05:46.874Z,31.03
2024-02-18T08:06:49.391Z,30.91
2024-02-18T08:07:46.825Z,30.93
2024-02-18T08:08:46.969Z,30.85
2024-02-18T08:09:46.817Z,30.78
2024-02-18T08:10:46.781Z,30.71
2024-02-18T08:11:46.851Z,30.92
2024-02-18T08:12:46.945Z,31.10
2024-02-18T08:13:46.813Z,30.90
2024-02-18T08:14:46.777Z,30.94
2024-02-18T08:15:46.848Z,30.95
2024-02-18T08:16:46.815Z,30.97
2024-02-18T08:17:46.896Z,30.95
2024-02-18T08:18:47.026Z,30.87
2024-02-18T08:19:46.848Z,30.91
2024-02-18T08:20:46.861Z,30.92
2024-02-18T08:21:46.829Z,31.01
2024-02-18T08:22:46.867Z,31.09
2024-02-18T08:23:46.846Z,31.02
2024-02-18T08:24:46.888Z,30.98
2024-02-18T08:25:46.835Z,31.15
2024-02-18T08:26:46.862Z,31.09
2024-02-18T08:27:46.836Z,31.02
2024-02-18T08:28:46.803Z,31.11
2024-02-18T08:29:46.864Z,31.43
2024-02-18T08:30:46.905Z,31.12
2024-02-18T08:31:46.830Z,31.06
2024-02-18T08:32:46.931Z,31.02
2024-02-18T08:33:46.983Z,30.92
2024-02-18T08:34:46.992Z,31.23
2024-02-18T08:35:46.815Z,31.00
2024-02-18T08:36:46.838Z,30.65
2024-02-18T08:37:46.853Z,30.78
2024-02-18T08:38:46.826Z,30.48
2024-02-18T08:39:46.823Z,30.54
2024-02-18T08:40:46.856Z,30.74
2024-02-18T08:41:46.845Z,30.57
2024-02-18T08:42:46.890Z,30.40
2024-02-18T08:43:46.860Z,30.41
2024-02-18T08:44:46.850Z,30.96
2024-02-18T08:45:46.863Z,30.98
2024-02-18T08:46:46.830Z,31.40
2024-02-18T08:47:46.949Z,30.68
2024-02-18T08:48:46.901Z,30.46
2024-02-18T08:49:47.015Z,30.39
2024-02-18T08:50:46.850Z,30.27
2024-02-18T08:51:46.898Z,30.14
2024-02-18T08:52:46.826Z,29.99
2024-02-18T08:53:46.849Z,29.86
2024-02-18T08:54:46.900Z,29.82
2024-02-18T08:55:46.877Z,29.78
2024-02-18T08:56:46.895Z,29.66
2024-02-18T08:57:47.004Z,29.76
2024-02-18T08:58:46.956Z,30.34
2024-02-18T08:59:47.047Z,30.42
2024-02-18T09:00:47.151Z,30.00
2024-02-18T09:01:47.179Z,29.85
2024-02-18T09:02:47.129Z,29.83
2024-02-18T09:03:47.213Z,29.85
2024-02-18T09:04:47.446Z,29.88
2024-02-18T09:05:47.301Z,30.11
2024-02-18T09:06:47.532Z,30.14
2024-02-18T09:07:47.295Z,30.05
2024-02-18T09:08:47.349Z,30.15
2024-02-18T09:09:47.401Z,30.18
2024-02-18T09:10:47.467Z,30.17
2024-02-18T09:11:47.494Z,30.16
2024-02-18T09:12:47.609Z,30.17
2024-02-18T09:13:47.573Z,30.17
2024-02-18T09:14:47.588Z,30.17
2024-02-18T09:15:47.669Z,30.16
2024-02-18T09:16:47.686Z,30.18
2024-02-18T09:17:47.766Z,30.20
2024-02-18T09:18:47.936Z,30.21
2024-02-18T09:19:48.011Z,30.23
2024-02-18T09:20:47.877Z,30.26
2024-02-18T09:21:47.996Z,30.25
2024-02-18T09:22:48.055Z,30.27
2024-02-18T09:23:47.997Z,30.26
2024-02-18T09:24:48.138Z,30.27
2024-02-18T09:25:48.110Z,30.26
2024-02-18T09:26:48.159Z,30.26
2024-02-18T09:27:48.222Z,30.23
2024-02-18T09:28:48.228Z,30.14
2024-02-18T09:29:48.291Z,29.97
2024-02-18T09:30:48.458Z,29.89
2024-02-18T09:31:48.477Z,29.73
2024-02-18T09:32:48.363Z,29.61
2024-02-18T09:33:48.467Z,29.50
2024-02-18T09:34:48.502Z,29.47
2024-02-18T09:35:48.540Z,29.40
2024-02-18T09:36:48.419Z,29.45
2024-02-18T09:37:48.351Z,29.55
2024-02-18T09:38:48.458Z,29.60
2024-02-18T09:39:48.430Z,29.71
2024-02-18T09:40:48.400Z,29.87
2024-02-18T09:41:48.439Z,29.80
2024-02-18T09:42:48.438Z,29.83
2024-02-18T09:43:48.400Z,29.92
2024-02-18T09:44:48.427Z,29.88
2024-02-18T09:45:48.539Z,30.10
2024-02-18T09:46:48.457Z,29.84
2024-02-18T09:47:48.538Z,29.87
2024-02-18T09:48:48.566Z,29.93
2024-02-18T09:49:48.523Z,29.84
2024-02-18T09:50:48.468Z,29.97
2024-02-18T09:51:48.454Z,30.09
2024-02-18T09:52:48.575Z,30.09
2024-02-18T09:53:48.554Z,30.15
2024-02-18T09:54:48.609Z,30.01
2024-02-18T09:55:48.497Z,30.01
2024-02-18T09:56:48.487Z,30.07
2024-02-18T09:57:48.597Z,30.09
2024-02-18T09:58:48.556Z,30.07
2024-02-18T09:59:48.532Z,30.09
2024-02-18T10:00:48.653Z,30.09
2024-02-18T10:01:48.749Z,30.11
2024-02-18T10:02:48.622Z,30.10
2024-02-18T10:03:48.697Z,30.13
2024-02-18T10:04:48.740Z,30.14
2024-02-18T10:05:48.698Z,30.14
2024-02-18T10:06:48.837Z,30.18
2024-02-18T10:07:48.703Z,30.17
2024-02-18T10:08:48.754Z,30.17
2024-02-18T10:09:48.798Z,30.18
2024-02-18T10:10:48.954Z,30.20
2024-02-18T10:11:48.820Z,30.22
2024-02-18T10:12:48.839Z,30.19
2024-02-18T10:13:48.917Z,30.19
2024-02-18T10:14:48.914Z,30.22
2024-02-18T10:15:48.952Z,30.21
2024-02-18T10:16:48.924Z,30.21
2024-02-18T10:17:49.002Z,30.24
2024-02-18T10:18:49.135Z,30.19
2024-02-18T10:19:49.156Z,30.22
2024-02-18T10:20:49.040Z,30.23
2024-02-18T10:21:49.098Z,30.27
2024-02-18T10:22:49.075Z,30.27
2024-02-18T10:23:49.068Z,30.25
2024-02-18T10:24:49.104Z,30.26
2024-02-18T10:25:49.188Z,30.29
2024-02-18T10:26:49.194Z,30.27
2024-02-18T10:27:49.177Z,30.27
2024-02-18T10:28:49.213Z,30.28
2024-02-18T10:29:49.280Z,30.28
2024-02-18T10:30:49.274Z,30.27
2024-02-18T10:31:49.272Z,30.26
2024-02-18T10:32:49.351Z,30.26
2024-02-18T10:33:49.416Z,30.27
2024-02-18T10:34:50.217Z,30.27
2024-02-18T10:35:49.422Z,30.26
2024-02-18T10:36:49.396Z,30.26
2024-02-18T10:37:49.382Z,30.23
2024-02-18T10:38:49.384Z,30.26
2024-02-18T10:39:49.411Z,30.26
2024-02-18T10:40:49.394Z,30.28
2024-02-18T10:41:49.480Z,30.28
2024-02-18T10:42:49.520Z,30.29
2024-02-18T10:43:49.595Z,30.29
2024-02-18T10:44:49.484Z,30.30
2024-02-18T10:45:49.608Z,30.30
2024-02-18T10:46:49.557Z,30.31
2024-02-18T10:47:49.649Z,30.28
2024-02-18T10:48:49.655Z,30.27
2024-02-18T10:49:49.790Z,30.28
2024-02-18T10:50:49.603Z,30.30
2024-02-18T10:51:49.767Z,30.28
2024-02-18T10:52:49.891Z,30.30
2024-02-18T10:53:49.602Z,30.28
2024-02-18T10:54:49.700Z,30.28
2024-02-18T10:55:49.735Z,30.31
2024-02-18T10:56:49.748Z,30.31
2024-02-18T10:57:49.906Z,30.27
2024-02-18T10:58:49.836Z,30.29
2024-02-18T10:59:49.903Z,30.25
2024-02-18T11:00:50.049Z,30.26
2024-02-18T11:01:50.075Z,30.22
2024-02-18T11:02:50.047Z,30.23
2024-02-18T11:03:50.200Z,30.20
2024-02-18T11:04:50.245Z,30.18
2024-02-18T11:05:50.302Z,30.18
2024-02-18T11:06:50.519Z,30.13
2024-02-18T11:07:50.499Z,30.09
2024-02-18T11:08:50.467Z,30.07
2024-02-18T11:09:50.534Z,30.06
2024-02-18T11:10:50.661Z,30.05
2024-02-18T11:11:50.719Z,30.01
2024-02-18T11:12:50.774Z,30.02
2024-02-18T11:13:50.855Z,29.99
2024-02-18T11:14:50.957Z,29.94
2024-02-18T11:15:50.993Z,29.93
2024-02-18T11:16:51.003Z,29.94
2024-02-18T11:17:51.147Z,29.92
2024-02-18T11:18:51.162Z,29.95
2024-02-18T11:19:51.336Z,29.96
2024-02-18T11:20:51.210Z,29.89
2024-02-18T11:21:51.299Z,29.88
2024-02-18T11:22:51.356Z,29.88
2024-02-18T11:23:51.505Z,29.88
2024-02-18T11:24:51.566Z,29.86
2024-02-18T11:25:51.543Z,29.84
2024-02-18T11:26:51.592Z,29.87
2024-02-18T11:27:51.754Z,29.88
2024-02-18T11:28:51.745Z,29.85
2024-02-18T11:29:51.772Z,29.85
2024-02-18T11:30:51.926Z,29.84
2024-02-18T11:31:51.903Z,29.83
2024-02-18T11:32:52.006Z,29.82
2024-02-18T11:33:52.142Z,29.85
2024-02-18T11:34:52.122Z,29.80
2024-02-18T11:35:52.121Z,29.81
2024-02-18T11:36:52.203Z,29.79
2024-02-18T11:37:52.248Z,29.79
2024-02-18T11:38:52.332Z,29.80
2024-02-18T11:39:52.373Z,29.79
2024-02-18T11:40:52.440Z,29.74
2024-02-18T11:41:52.474Z,29.75
2024-02-18T11:42:52.555Z,29.74
2024-02-18T11:43:52.631Z,29.74
2024-02-18T11:44:52.686Z,29.73
2024-02-18T11:45:52.765Z,29.75
2024-02-18T11:46:52.814Z,29.75
2024-02-18T11:47:52.984Z,29.68
2024-02-18T11:48:52.867Z,29.72
2024-02-18T11:49:52.884Z,29.71
2024-02-18T11:50:52.928Z,29.73
2024-02-18T11:51:52.967Z,29.68
2024-02-18T11:52:52.951Z,29.67
2024-02-18T11:53:53.017Z,29.71
2024-02-18T11:54:53.148Z,29.70
2024-02-18T11:55:53.058Z,29.69
2024-02-18T11:56:53.069Z,29.68
2024-02-18T11:57:53.248Z,29.65
2024-02-18T11:58:53.199Z,29.69
2024-02-18T11:59:53.295Z,29.68
2024-02-18T12:00:53.344Z,29.69
2024-02-18T12:01:53.509Z,29.70
2024-02-18T12:02:53.337Z,29.69
2024-02-18T12:03:53.321Z,29.67
2024-02-18T12:04:53.287Z,29.63
2024-02-18T12:05:53.367Z,29.66
2024-02-18T12:06:53.408Z,29.63
2024-02-18T12:07:53.535Z,29.61
2024-02-18T12:08:53.359Z,29.65
2024-02-18T12:09:53.506Z,29.65
2024-02-18T12:10:53.428Z,29.63
2024-02-18T12:11:53.403Z,29.65
2024-02-18T12:12:53.475Z,29.63
2024-02-18T12:13:53.410Z,29.64
2024-02-18T12:14:53.424Z,29.64
2024-02-18T12:15:53.502Z,29.66
2024-02-18T12:16:53.532Z,29.65
2024-02-18T12:17:53.549Z,29.66
2024-02-18T12:18:53.641Z,29.68
2024-02-18T12:19:53.629Z,29.65
2024-02-18T12:20:53.469Z,29.62
2024-02-18T12:21:53.541Z,29.65
2024-02-18T12:22:53.480Z,29.64
2024-02-18T12:23:53.498Z,29.64
2024-02-18T12:24:53.587Z,29.62
2024-02-18T12:25:53.529Z,29.60
2024-02-18T12:26:53.521Z,29.61
2024-02-18T12:27:53.609Z,29.61
2024-02-18T12:28:53.587Z,29.63
2024-02-18T12:29:53.734Z,29.62
2024-02-18T12:30:53.855Z,29.64
2024-02-18T12:31:53.709Z,29.62
2024-02-18T12:32:56.658Z,29.64
2024-02-18T12:33:53.931Z,29.64
2024-02-18T12:34:53.865Z,29.65
2024-02-18T12:35:53.789Z,29.63
2024-02-18T12:36:53.825Z,29.64
2024-02-18T12:37:53.813Z,29.64
2024-02-18T12:38:53.797Z,29.66
2024-02-18T12:39:53.914Z,29.68
2024-02-18T12:40:53.838Z,29.69
2024-02-18T12:41:53.770Z,29.68
2024-02-18T12:43:14.526Z,29.70
2024-02-18T12:44:26.771Z,29.71
2024-02-18T12:45:37.250Z,29.72
2024-02-18T12:46:01.932Z,29.70
2024-02-18T12:46:55.037Z,29.71
2024-02-18T12:47:53.956Z,29.71
2024-02-18T12:48:54.023Z,29.70
2024-02-18T12:49:53.894Z,29.73
2024-02-18T12:50:53.832Z,29.69
2024-02-18T12:51:53.866Z,29.68
2024-02-18T12:52:53.788Z,29.69